^^
Station Historical Data
Daily Summary for December 9, 2017 Units:  Metric    English   Both
« Previous Day
Next Day »
Daily Weekly Monthly Yearly Custom
  High: Low: Average:
Temperature: 38.1 °C 22.5 °C 28.4 °C
Dew Point: 10.9 °C 3.1 °C 8.7 °C
Humidity: 44% 12% 31%
Wind Speed: 22.7km/h 0km/h 6.1km/h
Wind Gust: 38.6km/h - -
Wind- - South
Pressure: 1009 hPa 1003.6 hPa -
Precipitation: 0 mm    
Historical Graphs
 
 
Tabular Data for December 9, 2017
Time Temperature Dew Point Pressure Wind Wind Speed Wind Gust Humidity Rainfall Rate (Hourly) solar Conditions
00:00 28.6 °C 10.3 °C 1009 hPa South 4.7 km/h 9.7 km/h 32% 0 mm 0.0 W/m2
00:10 28.2 °C 9.5 °C 1009 hPa South 9.7 km/h 9.7 km/h 31% 0 mm 0.0 W/m2
00:15 28 °C 9.8 °C 1009 hPa South 7.9 km/h 9.7 km/h 32% 0 mm 0.0 W/m2
00:20 27.9 °C 9.7 °C 1009 hPa South 7.9 km/h 9.7 km/h 32% 0 mm 0.0 W/m2
00:26 27.8 °C 10.1 °C 1008.7 hPa South 6.4 km/h 9.7 km/h 33% 0 mm 0.0 W/m2
00:40 27.8 °C 9.6 °C 1008.7 hPa South 7.9 km/h 12.9 km/h 32% 0 mm 0.0 W/m2
00:55 27.4 °C 9.7 °C 1008.4 hPa South 4.7 km/h 8 km/h 33% 0 mm 0.0 W/m2
01:00 27.4 °C 9.2 °C 1008.4 hPa South 4.7 km/h 6.4 km/h 32% 0 mm 0.0 W/m2
01:11 27 °C 9.4 °C 1008.4 hPa South 4.7 km/h 6.4 km/h 33% 0 mm 0.0 W/m2
01:26 26.8 °C 9.2 °C 1008.4 hPa South 9.7 km/h 11.3 km/h 33% 0 mm 0.0 W/m2
01:37 26.9 °C 9.3 °C 1008.4 hPa South 4.7 km/h 12.9 km/h 33% 0 mm 0.0 W/m2
01:47 26.4 °C 8.8 °C 1008.4 hPa South 9.7 km/h 11.3 km/h 33% 0 mm 0.0 W/m2
02:02 26.3 °C 9.2 °C 1008 hPa South 4.7 km/h 8 km/h 34% 0 mm 0.0 W/m2
02:07 26.2 °C 9.1 °C 1008 hPa South 9.7 km/h 9.7 km/h 34% 0 mm 0.0 W/m2
02:22 25.7 °C 9.5 °C 1008 hPa South 6.4 km/h 8 km/h 36% 0 mm 0.0 W/m2
02:27 25.6 °C 9.4 °C 1008 hPa South 6.4 km/h 6.4 km/h 36% 0 mm 0.0 W/m2
02:42 25.2 °C 9.5 °C 1007.7 hPa South 4.7 km/h 6.4 km/h 37% 0 mm 0.0 W/m2
02:48 25.1 °C 9.4 °C 1007.7 hPa South 4.7 km/h 6.4 km/h 37% 0 mm 0.0 W/m2
02:53 24.9 °C 9.2 °C 1007.7 hPa Calm     37% 0 mm 0.0 W/m2
02:58 24.8 °C 9.1 °C 1007.7 hPa Calm     37% 0 mm 0.0 W/m2
03:03 24.6 °C 8.9 °C 1007.7 hPa Calm     37% 0 mm 0.0 W/m2
03:09 24.5 °C 8.9 °C 1007.7 hPa Calm     37% 0 mm 0.0 W/m2
03:14 24.4 °C 9.2 °C 1007.7 hPa Calm     38% 0 mm 0.0 W/m2
03:35 24.1 °C 9.3 °C 1007.3 hPa Calm     39% 0 mm 0.0 W/m2
03:41 23.9 °C 9.1 °C 1007.3 hPa Calm     39% 0 mm 0.0 W/m2
03:46 23.9 °C 9.1 °C 1007.3 hPa Calm     39% 0 mm 0.0 W/m2
03:56 23.7 °C 8.9 °C 1007.3 hPa Calm     39% 0 mm 0.0 W/m2
04:01 23.6 °C 9.2 °C 1007.3 hPa Calm     40% 0 mm 0.0 W/m2
04:06 23.6 °C 9.2 °C 1007.3 hPa Calm     40% 0 mm 0.0 W/m2
04:11 23.4 °C 9 °C 1007.3 hPa Calm     40% 0 mm 0.0 W/m2
04:16 23.4 °C 9.4 °C 1007.3 hPa Calm     41% 0 mm 0.0 W/m2
04:21 23.4 °C 9 °C 1007.3 hPa Calm     40% 0 mm 0.0 W/m2
04:32 23.4 °C 9.4 °C 1007.3 hPa Calm     41% 0 mm 0.0 W/m2
04:37 23.3 °C 9.3 °C 1007.3 hPa Calm     41% 0 mm 0.0 W/m2
04:42 23.2 °C 9.2 °C 1007.3 hPa Calm     41% 0 mm 0.0 W/m2
04:47 23.2 °C 9.6 °C 1007.3 hPa Calm     42% 0 mm 0.0 W/m2
04:53 23.3 °C 9.7 °C 1007.3 hPa Calm     42% 0 mm 0.0 W/m2
05:19 23.7 °C 9.7 °C 1007.7 hPa Calm     41% 0 mm 0.0 W/m2
05:45 23.2 °C 9.6 °C 1007.3 hPa Calm     42% 0 mm 0.0 W/m2
05:51 23 °C 9.4 °C 1007.3 hPa Calm     42% 0 mm 5.0 W/m2
05:56 22.8 °C 9.2 °C 1007.7 hPa Calm     42% 0 mm 7.0 W/m2
06:06 22.5 °C 9.6 °C 1007.7 hPa Calm     44% 0 mm 16.0 W/m2
06:22 22.9 °C 10 °C 1007.7 hPa Calm     44% 0 mm 46.0 W/m2
06:27 22.9 °C 10 °C 1007.7 hPa Calm     44% 0 mm 46.0 W/m2
06:42 24.1 °C 10.4 °C 1007.7 hPa Calm     42% 0 mm 105.0 W/m2
06:47 24.4 °C 10.3 °C 1008 hPa Calm     41% 0 mm 128.0 W/m2
06:53 24.7 °C 10.2 °C 1008 hPa Calm     40% 0 mm 149.0 W/m2
06:58 25.1 °C 10.2 °C 1008 hPa Calm     39% 0 mm 165.0 W/m2
07:09 25.8 °C 10.4 °C 1007.7 hPa Calm     38% 0 mm 211.0 W/m2
07:18 26.3 °C 9.6 °C 1007.7 hPa Calm     35% 0 mm 246.0 W/m2
07:28 26.5 °C 9.8 °C 1007.7 hPa Calm     35% 0 mm 262.0 W/m2
07:37 26.8 °C 9.6 °C 1007.7 hPa Calm     34% 0 mm 297.0 W/m2
07:46 27.2 °C 10 °C 1007.7 hPa South 11.1 km/h 11.3 km/h 34% 0 mm 332.0 W/m2
09:10 29.9 °C 9.4 °C 1007.7 hPa South 14.3 km/h 14.5 km/h 28% 0 mm 612.0 W/m2
09:15 30.1 °C 9.6 °C 1007.7 hPa South 13 km/h 16.1 km/h 28% 0 mm 628.0 W/m2
09:40 30.6 °C 8.9 °C 1007.7 hPa South 11.1 km/h 14.5 km/h 26% 0 mm 700.0 W/m2
09:50 30.9 °C 9.2 °C 1007.7 hPa South 9.7 km/h 9.7 km/h 26% 0 mm 729.0 W/m2
10:01 31.2 °C 8.8 °C 1007.7 hPa South 7.9 km/h 11.3 km/h 25% 0 mm 754.0 W/m2
10:16 31.9 °C 8.8 °C 1007.7 hPa Calm     24% 0 mm 793.0 W/m2
10:22 32.2 °C 9.1 °C 1007.3 hPa Calm     24% 0 mm 807.0 W/m2
10:31 32.4 °C 9.2 °C 1007.3 hPa Calm     24% 0 mm 828.0 W/m2
11:02 33.2 °C 8.6 °C 1007.3 hPa Calm     22% 0 mm 888.0 W/m2
11:14 33.4 °C 8.8 °C 1007.3 hPa Calm     22% 0 mm 902.0 W/m2
11:19 33.9 °C 9.2 °C 1007 hPa Calm     22% 0 mm 912.0 W/m2
11:39 34.3 °C 8.8 °C 1007 hPa South 9.7 km/h 9.7 km/h 21% 0 mm 939.0 W/m2
11:54 34.7 °C 8.4 °C 1006.7 hPa South 1.4 km/h 6.4 km/h 20% 0 mm 953.0 W/m2
12:04 34.8 °C 8.5 °C 1006.7 hPa Calm   6.4 km/h 20% 0 mm 960.0 W/m2
12:09 34.7 °C 8.4 °C 1006.7 hPa Calm     20% 0 mm 962.0 W/m2
12:19 35.2 °C 8.1 °C 1006.3 hPa Calm   8 km/h 19% 0 mm 965.0 W/m2
12:24 35.2 °C 8.1 °C 1006.3 hPa South 13 km/h 13 km/h 19% 0 mm 969.0 W/m2
12:35 35.4 °C 7.5 °C 1006.3 hPa Calm   6.4 km/h 18% 0 mm 972.0 W/m2
12:46 35.7 °C 7.7 °C 1006 hPa South 1.4 km/h 6.4 km/h 18% 0 mm 967.0 W/m2
12:52 35.8 °C 7.8 °C 1006 hPa Calm   3.2 km/h 18% 0 mm 972.0 W/m2
13:01 36.3 °C 7.4 °C 1005.6 hPa Calm   11.3 km/h 17% 0 mm 972.0 W/m2
13:05 36.3 °C 7.4 °C 1005.6 hPa South 7.9 km/h 16.1 km/h 17% 0 mm 974.0 W/m2
13:13 36.4 °C 7.4 °C 1005.6 hPa Calm   8 km/h 17% 0 mm 970.0 W/m2
13:46 36.3 °C 5.5 °C 1005 hPa Calm     15% 0 mm 951.0 W/m2
14:13 37.2 °C 5.2 °C 1005 hPa South 7.9 km/h 9.7 km/h 14% 0 mm 946.0 W/m2
14:27 37.3 °C 4.3 °C 1004.6 hPa South 22.7 km/h 27.4 km/h 13% 0 mm 905.0 W/m2
14:40 37.2 °C 3.1 °C 1004.6 hPa South 22.7 km/h 27.4 km/h 12% 0 mm 889.0 W/m2
15:34 38.1 °C 4.9 °C 1003.9 hPa South 17.7 km/h 19.3 km/h 13% 0 mm 749.0 W/m2
15:45 37.7 °C 4.6 °C 1003.6 hPa SSW 11.1 km/h 20.9 km/h 13% 0 mm 726.0 W/m2
15:53 37.9 °C 4.7 °C 1003.6 hPa SW 14.3 km/h 27.4 km/h 13% 0 mm 700.0 W/m2
20:29 30.7 °C 10.6 °C 1004.6 hPa SSW 17.7 km/h 38.6 km/h 29% 0 mm 0.0 W/m2
20:34 30.4 °C 10.9 °C 1004.6 hPa SSW 22.7 km/h 30.6 km/h 30% 0 mm 0.0 W/m2
20:49 29.8 °C 10.4 °C 1005 hPa SSW 20.9 km/h 32.2 km/h 30% 0 mm 0.0 W/m2
21:05 29.6 °C 10.2 °C 1005.3 hPa South 20.9 km/h 29 km/h 30% 0 mm 0.0 W/m2
21:19 29.1 °C 9.8 °C 1005.3 hPa SSW 17.7 km/h 27.4 km/h 30% 0 mm 0.0 W/m2
21:34 28.6 °C 9.8 °C 1005.6 hPa SSW 20.9 km/h 29 km/h 31% 0 mm 0.0 W/m2
21:43 28.3 °C 9.6 °C 1005.6 hPa SSW 22.7 km/h 27.4 km/h 31% 0 mm 0.0 W/m2
23:00 26.5 °C 6 °C 1006.3 hPa SSW 19.5 km/h 24.1 km/h 27% 0 mm 0.0 W/m2
23:10 26.3 °C 5.8 °C 1006.3 hPa SSW 19.5 km/h 24.1 km/h 27% 0 mm 0.0 W/m2
23:15 26.2 °C 5.7 °C 1006 hPa SSW 22.7 km/h 27.4 km/h 27% 0 mm 0.0 W/m2
23:26 26 °C 7.1 °C 1006.3 hPa SSW 19.5 km/h 20.9 km/h 30% 0 mm 0.0 W/m2
23:46 25.7 °C 5.3 °C 1006 hPa SSW 19.5 km/h 22.5 km/h 27% 0 mm 0.0 W/m2
23:51 25.6 °C 5.2 °C 1006 hPa SSW 19.5 km/h 20.9 km/h 27% 0 mm 0.0 W/m2
23:56 25.5 °C 4.6 °C 1006 hPa SSW 19.5 km/h 22.5 km/h 26% 0 mm 0.0 W/m2
Canyon Roadhouse, Fishriver Canyon, Namibia
Compliments of Weather Underground - 2 mb